Celtic Warrior — 2IBU5 — position and weather

sailwx.info

Track history (hours):
 
Tides and Currents Weather Stations Pressure Air Temp Water Temp Dewpoint Dewpoint Depression Visibility Wind Speed Wind Dir Waves Ship Positions

Celtic Warrior

Last reported at 2018-Jun-23 09:59 UTC. Time now 2018-Jun-23 09:58 UTC.
Position N 38°28' E 000°12'.

Length 89 m; draft 5.6 m.

Type: Cargo ship. MMSI: 235108405.

Date/timePositionNaut miles runAvg speedWind from/ knotsBaromVisibWave heightAir tempDewpointWater temp
2018-Jun-23 09:59N 38°28' E 000°12'510.9
2018-Jun-23 09:29N 38°25' E 000°07'511.0
2018-Jun-23 09:00N 38°21' E 000°02'611.0
2018-Jun-23 08:31N 38°17' W 000°02'810.9
2018-Jun-23 07:45N 38°11' W 000°10'310.9
2018-Jun-23 07:29N 38°08' W 000°12'510.9
2018-Jun-23 07:00N 38°05' W 000°17'510.9
2018-Jun-23 06:30N 38°01' W 000°22'510.8
2018-Jun-23 06:00N 37°56' W 000°25'610.9
2018-Jun-23 05:28N 37°51' W 000°29'510.8
2018-Jun-23 05:01N 37°46' W 000°29'510.8
2018-Jun-23 04:30N 37°40' W 000°29'510.6
2018-Jun-23 04:00N 37°35' W 000°30'510.7
2018-Jun-23 03:30N 37°31' W 000°34'510.8
2018-Jun-23 03:00N 37°27' W 000°39'510.5
2018-Jun-23 02:30N 37°24' W 000°44'510.6
2018-Jun-23 02:00N 37°20' W 000°49'510.7
2018-Jun-23 01:30N 37°17' W 000°54'510.9
2018-Jun-23 01:01N 37°13' W 000°59'611.1
2018-Jun-23 00:28N 37°09' W 001°05'413 9.7
2018-Jun-21 05:58N 37°26' W 009°44'511.1
2018-Jun-21 05:30N 37°31' W 009°45'1011.0
2018-Jun-21 04:33N 37°41' W 009°49'210.9
2018-Jun-21 04:22N 37°43' W 009°49'410.6
2018-Jun-21 04:00N 37°47' W 009°50'611.0
2018-Jun-21 03:30N 37°52' W 009°52'611.1
2018-Jun-21 03:00N 37°57' W 009°53'611.3
2018-Jun-21 02:29N 38°03' W 009°55'511.1
2018-Jun-21 02:00N 38°09' W 009°56'611.8
2018-Jun-21 01:30N 38°14' W 009°58'611.9
2018-Jun-21 00:59N 38°20' W 009°60'511.4
2018-Jun-21 00:31N 38°26' W 010°01'611.2
2018-Jun-21 00:00N 38°31' W 010°03'811.2
2018-Jun-20 23:18N 38°39' W 010°05'311.3
2018-Jun-20 23:01N 38°42' W 010°06'611.3
2018-Jun-20 22:31N 38°48' W 010°06'611.3
2018-Jun-20 22:00N 38°53' W 010°06'611.2
2018-Jun-20 21:30N 38°59' W 010°06'511.0
2018-Jun-20 21:00N 39°04' W 010°06'610.9
2018-Jun-20 20:29N 39°10' W 010°07'511.2
2018-Jun-20 20:00N 39°15' W 010°07'611.9
2018-Jun-20 19:29N 39°22' W 010°06'  
2018-Jun-18 07:02N 49°21' W 005°10'2 8.5
2018-Jun-18 06:50N 49°22' W 005°08'5 8.8
2018-Jun-18 06:14N 49°26' W 005°02'2 9.0
2018-Jun-18 05:59N 49°28' W 004°60'5 9.4
2018-Jun-18 05:30N 49°30' W 004°54'5 9.6
2018-Jun-18 05:00N 49°33' W 004°49'5 9.9
2018-Jun-18 04:30N 49°37' W 004°42'610.4
2018-Jun-18 03:54N 49°41' W 004°35'510.9
2018-Jun-18 03:24N 49°44' W 004°29'411.1
2018-Jun-18 03:00N 49°47' W 004°24'611.4
2018-Jun-18 02:30N 49°51' W 004°17'611.4
2018-Jun-18 01:58N 49°55' W 004°10'911.1
2018-Jun-18 01:11N 50°00' W 003°59'211.0
2018-Jun-18 01:00N 50°01' W 003°57'610.8
2018-Jun-18 00:25N 50°05' W 003°49'410.5
2018-Jun-18 00:00N 50°08' W 003°43'5 9.8
2018-Jun-17 23:31N 50°11' W 003°37'5 9.4
2018-Jun-17 23:01N 50°14' W 003°32'5 9.3
2018-Jun-17 22:31N 50°18' W 003°28'510.0
2018-Jun-17 22:00N 50°23' W 003°26'510.5
2018-Jun-17 21:30N 50°28' W 003°26'5 9.3
2018-Jun-17 21:01N 50°32' W 003°29'1 1.7
2018-Jun-17 20:31N 50°33' W 003°30'0 0.0
2018-Jun-17 19:57N 50°33' W 003°30'0 0.0
2018-Jun-17 19:30N 50°33' W 003°30'0 0.0
2018-Jun-17 19:00N 50°33' W 003°30'0 0.0
2018-Jun-17 18:30N 50°33' W 003°30'0 0.0
2018-Jun-17 18:00N 50°33' W 003°30'0 0.0
2018-Jun-17 17:30N 50°33' W 003°30'0 0.0
2018-Jun-17 16:57N 50°33' W 003°30'0 0.0
2018-Jun-17 16:30N 50°33' W 003°30'0 0.0
2018-Jun-17 16:00N 50°33' W 003°30'0 0.0
2018-Jun-17 15:27N 50°33' W 003°30'0 0.0
2018-Jun-17 15:00N 50°33' W 003°30'0 0.0
2018-Jun-17 14:30N 50°33' W 003°30'0 0.0
2018-Jun-17 14:00N 50°33' W 003°30'0 0.0
2018-Jun-17 13:30N 50°33' W 003°30'0 0.0
2018-Jun-17 13:00N 50°33' W 003°30'0 0.0
2018-Jun-17 12:30N 50°33' W 003°30'0 0.0
2018-Jun-17 11:54N 50°33' W 003°30'0 0.0
2018-Jun-17 11:30N 50°33' W 003°30'0 0.0
2018-Jun-17 11:00N 50°33' W 003°30'0 0.0
2018-Jun-17 10:30N 50°33' W 003°30'0 0.0
2018-Jun-17 10:00N 50°33' W 003°30'0 0.0
2018-Jun-17 09:30N 50°33' W 003°30'0 0.0
2018-Jun-17 09:00N 50°33' W 003°30'0 0.0
2018-Jun-17 08:30N 50°33' W 003°30'0 0.0
2018-Jun-17 08:00N 50°33' W 003°30'0 0.0
2018-Jun-17 07:30N 50°33' W 003°30'0 0.0
2018-Jun-17 06:57N 50°33' W 003°30'0 0.0
2018-Jun-17 06:30N 50°33' W 003°30'0 0.0
2018-Jun-17 06:00N 50°33' W 003°30'0 0.0
2018-Jun-17 05:30N 50°33' W 003°30'0 0.0
2018-Jun-17 05:00N 50°33' W 003°30'0 0.0
2018-Jun-17 04:30N 50°33' W 003°30'0 0.0
2018-Jun-17 04:00N 50°33' W 003°30'0 0.0
2018-Jun-17 03:30N 50°33' W 003°30'0 0.0
2018-Jun-17 03:00N 50°33' W 003°30'0 0.0
2018-Jun-17 02:30N 50°33' W 003°30'0 0.0
2018-Jun-17 02:00N 50°33' W 003°30'0 0.0
2018-Jun-17 01:30N 50°33' W 003°30'0 0.0
2018-Jun-17 01:00N 50°33' W 003°30'0 0.0
2018-Jun-17 00:30N 50°33' W 003°30'0 0.0
2018-Jun-17 00:00N 50°33' W 003°30'0 0.0
2018-Jun-16 23:30N 50°33' W 003°30'0 0.0
2018-Jun-16 23:00N 50°33' W 003°30'0 0.0
2018-Jun-16 22:30N 50°33' W 003°30'0 0.0
2018-Jun-16 22:00N 50°33' W 003°30'0 0.0
2018-Jun-16 21:30N 50°33' W 003°30'0 0.0
2018-Jun-16 21:00N 50°33' W 003°30'0 0.2
2018-Jun-16 20:30N 50°33' W 003°30'2 3.3
2018-Jun-16 20:00N 50°32' W 003°28'1 1.7
2018-Jun-16 19:30N 50°31' W 003°28'1 2.1
2018-Jun-16 19:00N 50°30' W 003°29'0 0.0
2018-Jun-16 18:30N 50°30' W 003°29'0 0.1
2018-Jun-16 18:00N 50°30' W 003°29'0 0.0
2018-Jun-16 17:30N 50°30' W 003°29'0 0.0
2018-Jun-16 17:00N 50°30' W 003°29'0 0.0
2018-Jun-16 16:30N 50°30' W 003°29'0 0.0
2018-Jun-16 16:00N 50°30' W 003°29'0 0.0
2018-Jun-16 15:30N 50°30' W 003°29'0 0.0
2018-Jun-16 15:00N 50°30' W 003°29'0 0.0
2018-Jun-16 14:30N 50°30' W 003°29'0 0.0
2018-Jun-16 14:00N 50°30' W 003°29'0 0.0
2018-Jun-16 13:30N 50°30' W 003°29'0 0.0
2018-Jun-16 13:00N 50°30' W 003°29'0 0.1
2018-Jun-16 12:30N 50°30' W 003°29'0 0.0
2018-Jun-16 12:00N 50°30' W 003°29'0 0.1
2018-Jun-16 11:30N 50°30' W 003°29'0 0.1
2018-Jun-16 11:00N 50°30' W 003°29'0 0.0
2018-Jun-16 10:30N 50°30' W 003°29'0 0.0
2018-Jun-16 10:00N 50°30' W 003°29'1 1.1
2018-Jun-16 09:30N 50°30' W 003°28'611.8
2018-Jun-16 09:00N 50°24' W 003°26'612.6
2018-Jun-16 08:30N 50°18' W 003°29'713.5
2018-Jun-16 08:00N 50°13' W 003°36'713.9
2018-Jun-16 07:30N 50°09' W 003°45'1413.0
2018-Jun-16 06:24N 50°06' W 004°07'144 7.2
2018-Jun-15 10:25N 52°19' W 005°37'3 8.3
2018-Jun-15 10:00N 52°22' W 005°35'18 7.8
2018-Jun-15 07:43N 52°39' W 005°25'2 8.4
2018-Jun-15 07:29N 52°41' W 005°24'10 9.6
2018-Jun-15 06:24N 52°50' W 005°17'6511.4
2018-Jun-15 00:40N 53°34' W 003°56'312.0
2018-Jun-15 00:23N 53°34' W 003°50'512.0
2018-Jun-14 23:59N 53°34' W 003°42'611.5
2018-Jun-14 23:30N 53°33' W 003°33'611.1
2018-Jun-14 22:59N 53°33' W 003°23'510.2
2018-Jun-14 22:30N 53°32' W 003°15'5 9.3
2018-Jun-14 22:00N 53°31' W 003°07'4 7.8
2018-Jun-14 21:30N 53°28' W 003°03'2 4.6
2018-Jun-14 20:58N 53°26' W 003°01'0 0.0
2018-Jun-14 20:28N 53°26' W 003°01'0 0.6
2018-Jun-14 19:58N 53°26' W 003°00'0 0.2
2018-Jun-14 19:25N 53°26' W 003°00'0 0.0
2018-Jun-14 18:58N 53°26' W 003°00'0 0.0
2018-Jun-14 18:28N 53°26' W 003°00'0 0.0
2018-Jun-14 17:58N 53°26' W 003°00'0 0.0
2018-Jun-14 17:25N 53°26' W 003°00'0 0.0
2018-Jun-14 16:55N 53°26' W 003°00'0 0.0
2018-Jun-14 16:28N 53°26' W 003°00'0 0.0
2018-Jun-14 15:58N 53°26' W 003°00'0 0.0
2018-Jun-14 15:28N 53°26' W 003°00'0 0.0
2018-Jun-14 14:58N 53°26' W 003°00'0 0.0
2018-Jun-14 14:28N 53°26' W 003°00'0 0.0
2018-Jun-14 13:58N 53°26' W 003°00'0 0.0
2018-Jun-14 13:28N 53°26' W 003°00'0 0.0
2018-Jun-14 12:58N 53°26' W 003°00'0 0.0
2018-Jun-14 12:28N 53°26' W 003°00'0 0.0
2018-Jun-14 11:52N 53°26' W 003°00'0 0.0
2018-Jun-14 11:28N 53°26' W 003°00'0 0.0
2018-Jun-14 10:58N 53°26' W 003°00'0 0.0
2018-Jun-14 10:28N 53°26' W 003°00'0 0.0
2018-Jun-14 09:58N 53°26' W 003°00'0 0.0
2018-Jun-14 09:28N 53°26' W 003°00'0 0.0
2018-Jun-14 08:58N 53°26' W 003°00'0 0.0
2018-Jun-14 08:28N 53°26' W 003°00'0 0.0
2018-Jun-14 07:58N 53°26' W 003°00'0 0.0
2018-Jun-14 07:25N 53°26' W 003°00'0 0.0
2018-Jun-14 06:58N 53°26' W 003°00'0 0.0
2018-Jun-14 06:28N 53°26' W 003°00'0 0.0
2018-Jun-14 05:58N 53°26' W 003°00'0 0.0
2018-Jun-14 05:28N 53°26' W 003°00'0 0.0
2018-Jun-14 04:58N 53°26' W 003°00'0 0.0
2018-Jun-14 04:22N 53°26' W 003°00'0 0.0
2018-Jun-14 03:58N 53°26' W 003°00'0 0.0
2018-Jun-14 03:22N 53°26' W 003°00'0 0.0
2018-Jun-14 02:58N 53°26' W 003°00'0 0.0
2018-Jun-14 02:28N 53°26' W 003°00'0 0.0
2018-Jun-14 01:55N 53°26' W 003°00'0 0.0
2018-Jun-14 01:28N 53°26' W 003°00'0 0.0
2018-Jun-14 01:01N 53°26' W 003°00'0 0.0
2018-Jun-14 00:27N 53°26' W 003°00'0 0.0
2018-Jun-14 00:00N 53°26' W 003°00'0 0.0
2018-Jun-13 23:30N 53°26' W 003°00'0 0.0
2018-Jun-13 23:00N 53°26' W 003°00'0 0.0
2018-Jun-13 22:30N 53°26' W 003°00'0 0.0
2018-Jun-13 22:00N 53°26' W 003°00'0 0.0
2018-Jun-13 21:30N 53°26' W 003°00'0 0.0
2018-Jun-13 21:00N 53°26' W 003°00'0 0.0
2018-Jun-13 20:30N 53°26' W 003°00'0 0.0
2018-Jun-13 20:00N 53°26' W 003°00'0 0.0
2018-Jun-13 19:30N 53°26' W 003°00'0 0.0
2018-Jun-13 18:57N 53°26' W 003°00'0 0.0
2018-Jun-13 18:30N 53°26' W 003°00'0 0.0
2018-Jun-13 17:57N 53°26' W 003°00'0 0.0
2018-Jun-13 17:30N 53°26' W 003°00'0 0.0
2018-Jun-13 17:00N 53°26' W 003°00'0 0.0
2018-Jun-13 16:30N 53°26' W 003°00'0 0.0
2018-Jun-13 16:00N 53°26' W 003°00'0 0.0
2018-Jun-13 15:30N 53°26' W 003°00'0 0.0
2018-Jun-13 15:00N 53°26' W 003°00'0 0.0
2018-Jun-13 14:30N 53°26' W 003°00'0 0.0
2018-Jun-13 14:00N 53°26' W 003°00'0 0.0
2018-Jun-13 13:30N 53°26' W 003°00'0 0.0
2018-Jun-13 13:00N 53°26' W 003°00'0 0.0
2018-Jun-13 12:30N 53°26' W 003°00'0 0.0
2018-Jun-13 11:57N 53°26' W 003°00'0 0.0
2018-Jun-13 11:30N 53°26' W 003°00'0 0.0
2018-Jun-13 11:00N 53°26' W 003°00'0 0.7
2018-Jun-13 10:30N 53°26' W 003°01'0 0.4
2018-Jun-13 10:00N 53°26' W 003°01'  
Track history (hours):
 
Tides and Currents Weather Stations Pressure Air Temp Water Temp Dewpoint Dewpoint Depression Visibility Wind Speed Wind Dir Waves Ship Positions

Celtic Warrior

Last reported at 2018-Jun-23 09:59 UTC. Time now 2018-Jun-23 09:58 UTC.
Position N 38°28' E 000°12'.

Length 89 m; draft 5.6 m.

Type: Cargo ship. MMSI: 235108405.

Date/timePositionNaut miles runAvg speedWind from/ knotsBaromVisibWave heightAir tempDewpointWater temp
2018-Jun-23 09:59N 38°28' E 000°12'510.9
2018-Jun-23 09:29N 38°25' E 000°07'511.0
2018-Jun-23 09:00N 38°21' E 000°02'611.0
2018-Jun-23 08:31N 38°17' W 000°02'810.9
2018-Jun-23 07:45N 38°11' W 000°10'310.9
2018-Jun-23 07:29N 38°08' W 000°12'510.9
2018-Jun-23 07:00N 38°05' W 000°17'510.9
2018-Jun-23 06:30N 38°01' W 000°22'510.8
2018-Jun-23 06:00N 37°56' W 000°25'610.9
2018-Jun-23 05:28N 37°51' W 000°29'510.8
2018-Jun-23 05:01N 37°46' W 000°29'510.8
2018-Jun-23 04:30N 37°40' W 000°29'510.6
2018-Jun-23 04:00N 37°35' W 000°30'510.7
2018-Jun-23 03:30N 37°31' W 000°34'510.8
2018-Jun-23 03:00N 37°27' W 000°39'510.5
2018-Jun-23 02:30N 37°24' W 000°44'510.6
2018-Jun-23 02:00N 37°20' W 000°49'510.7
2018-Jun-23 01:30N 37°17' W 000°54'510.9
2018-Jun-23 01:01N 37°13' W 000°59'611.1
2018-Jun-23 00:28N 37°09' W 001°05'413 9.7
2018-Jun-21 05:58N 37°26' W 009°44'511.1
2018-Jun-21 05:30N 37°31' W 009°45'1011.0
2018-Jun-21 04:33N 37°41' W 009°49'210.9
2018-Jun-21 04:22N 37°43' W 009°49'410.6
2018-Jun-21 04:00N 37°47' W 009°50'611.0
2018-Jun-21 03:30N 37°52' W 009°52'611.1
2018-Jun-21 03:00N 37°57' W 009°53'611.3
2018-Jun-21 02:29N 38°03' W 009°55'511.1
2018-Jun-21 02:00N 38°09' W 009°56'611.8
2018-Jun-21 01:30N 38°14' W 009°58'611.9
2018-Jun-21 00:59N 38°20' W 009°60'511.4
2018-Jun-21 00:31N 38°26' W 010°01'611.2
2018-Jun-21 00:00N 38°31' W 010°03'811.2
2018-Jun-20 23:18N 38°39' W 010°05'311.3
2018-Jun-20 23:01N 38°42' W 010°06'611.3
2018-Jun-20 22:31N 38°48' W 010°06'611.3
2018-Jun-20 22:00N 38°53' W 010°06'611.2
2018-Jun-20 21:30N 38°59' W 010°06'511.0
2018-Jun-20 21:00N 39°04' W 010°06'610.9
2018-Jun-20 20:29N 39°10' W 010°07'511.2
2018-Jun-20 20:00N 39°15' W 010°07'611.9
2018-Jun-20 19:29N 39°22' W 010°06'  
2018-Jun-18 07:02N 49°21' W 005°10'2 8.5
2018-Jun-18 06:50N 49°22' W 005°08'5 8.8
2018-Jun-18 06:14N 49°26' W 005°02'2 9.0
2018-Jun-18 05:59N 49°28' W 004°60'5 9.4
2018-Jun-18 05:30N 49°30' W 004°54'5 9.6
2018-Jun-18 05:00N 49°33' W 004°49'5 9.9
2018-Jun-18 04:30N 49°37' W 004°42'610.4
2018-Jun-18 03:54N 49°41' W 004°35'510.9
2018-Jun-18 03:24N 49°44' W 004°29'411.1
2018-Jun-18 03:00N 49°47' W 004°24'611.4
2018-Jun-18 02:30N 49°51' W 004°17'611.4
2018-Jun-18 01:58N 49°55' W 004°10'911.1
2018-Jun-18 01:11N 50°00' W 003°59'211.0
2018-Jun-18 01:00N 50°01' W 003°57'610.8
2018-Jun-18 00:25N 50°05' W 003°49'410.5
2018-Jun-18 00:00N 50°08' W 003°43'5 9.8
2018-Jun-17 23:31N 50°11' W 003°37'5 9.4
2018-Jun-17 23:01N 50°14' W 003°32'5 9.3
2018-Jun-17 22:31N 50°18' W 003°28'510.0
2018-Jun-17 22:00N 50°23' W 003°26'510.5
2018-Jun-17 21:30N 50°28' W 003°26'5 9.3
2018-Jun-17 21:01N 50°32' W 003°29'1 1.7
2018-Jun-17 20:31N 50°33' W 003°30'0 0.0
2018-Jun-17 19:57N 50°33' W 003°30'0 0.0
2018-Jun-17 19:30N 50°33' W 003°30'0 0.0
2018-Jun-17 19:00N 50°33' W 003°30'0 0.0
2018-Jun-17 18:30N 50°33' W 003°30'0 0.0
2018-Jun-17 18:00N 50°33' W 003°30'0 0.0
2018-Jun-17 17:30N 50°33' W 003°30'0 0.0
2018-Jun-17 16:57N 50°33' W 003°30'0 0.0
2018-Jun-17 16:30N 50°33' W 003°30'0 0.0
2018-Jun-17 16:00N 50°33' W 003°30'0 0.0
2018-Jun-17 15:27N 50°33' W 003°30'0 0.0
2018-Jun-17 15:00N 50°33' W 003°30'0 0.0
2018-Jun-17 14:30N 50°33' W 003°30'0 0.0
2018-Jun-17 14:00N 50°33' W 003°30'0 0.0
2018-Jun-17 13:30N 50°33' W 003°30'0 0.0
2018-Jun-17 13:00N 50°33' W 003°30'0 0.0
2018-Jun-17 12:30N 50°33' W 003°30'0 0.0
2018-Jun-17 11:54N 50°33' W 003°30'0 0.0
2018-Jun-17 11:30N 50°33' W 003°30'0 0.0
2018-Jun-17 11:00N 50°33' W 003°30'0 0.0
2018-Jun-17 10:30N 50°33' W 003°30'0 0.0
2018-Jun-17 10:00N 50°33' W 003°30'0 0.0
2018-Jun-17 09:30N 50°33' W 003°30'0 0.0
2018-Jun-17 09:00N 50°33' W 003°30'0 0.0
2018-Jun-17 08:30N 50°33' W 003°30'0 0.0
2018-Jun-17 08:00N 50°33' W 003°30'0 0.0
2018-Jun-17 07:30N 50°33' W 003°30'0 0.0
2018-Jun-17 06:57N 50°33' W 003°30'0 0.0
2018-Jun-17 06:30N 50°33' W 003°30'0 0.0
2018-Jun-17 06:00N 50°33' W 003°30'0 0.0
2018-Jun-17 05:30N 50°33' W 003°30'0 0.0
2018-Jun-17 05:00N 50°33' W 003°30'0 0.0
2018-Jun-17 04:30N 50°33' W 003°30'0 0.0
2018-Jun-17 04:00N 50°33' W 003°30'0 0.0
2018-Jun-17 03:30N 50°33' W 003°30'0 0.0
2018-Jun-17 03:00N 50°33' W 003°30'0 0.0
2018-Jun-17 02:30N 50°33' W 003°30'0 0.0
2018-Jun-17 02:00N 50°33' W 003°30'0 0.0
2018-Jun-17 01:30N 50°33' W 003°30'0 0.0
2018-Jun-17 01:00N 50°33' W 003°30'0 0.0
2018-Jun-17 00:30N 50°33' W 003°30'0 0.0
2018-Jun-17 00:00N 50°33' W 003°30'0 0.0
2018-Jun-16 23:30N 50°33' W 003°30'0 0.0
2018-Jun-16 23:00N 50°33' W 003°30'0 0.0
2018-Jun-16 22:30N 50°33' W 003°30'0 0.0
2018-Jun-16 22:00N 50°33' W 003°30'0 0.0
2018-Jun-16 21:30N 50°33' W 003°30'0 0.0
2018-Jun-16 21:00N 50°33' W 003°30'0 0.2
2018-Jun-16 20:30N 50°33' W 003°30'2 3.3
2018-Jun-16 20:00N 50°32' W 003°28'1 1.7
2018-Jun-16 19:30N 50°31' W 003°28'1 2.1
2018-Jun-16 19:00N 50°30' W 003°29'0 0.0
2018-Jun-16 18:30N 50°30' W 003°29'0 0.1
2018-Jun-16 18:00N 50°30' W 003°29'0 0.0
2018-Jun-16 17:30N 50°30' W 003°29'0 0.0
2018-Jun-16 17:00N 50°30' W 003°29'0 0.0
2018-Jun-16 16:30N 50°30' W 003°29'0 0.0
2018-Jun-16 16:00N 50°30' W 003°29'0 0.0
2018-Jun-16 15:30N 50°30' W 003°29'0 0.0
2018-Jun-16 15:00N 50°30' W 003°29'0 0.0
2018-Jun-16 14:30N 50°30' W 003°29'0 0.0
2018-Jun-16 14:00N 50°30' W 003°29'0 0.0
2018-Jun-16 13:30N 50°30' W 003°29'0 0.0
2018-Jun-16 13:00N 50°30' W 003°29'0 0.1
2018-Jun-16 12:30N 50°30' W 003°29'0 0.0
2018-Jun-16 12:00N 50°30' W 003°29'0 0.1
2018-Jun-16 11:30N 50°30' W 003°29'0 0.1
2018-Jun-16 11:00N 50°30' W 003°29'0 0.0
2018-Jun-16 10:30N 50°30' W 003°29'0 0.0
2018-Jun-16 10:00N 50°30' W 003°29'1 1.1
2018-Jun-16 09:30N 50°30' W 003°28'611.8
2018-Jun-16 09:00N 50°24' W 003°26'612.6
2018-Jun-16 08:30N 50°18' W 003°29'713.5
2018-Jun-16 08:00N 50°13' W 003°36'713.9
2018-Jun-16 07:30N 50°09' W 003°45'1413.0
2018-Jun-16 06:24N 50°06' W 004°07'144 7.2
2018-Jun-15 10:25N 52°19' W 005°37'3 8.3
2018-Jun-15 10:00N 52°22' W 005°35'18 7.8
2018-Jun-15 07:43N 52°39' W 005°25'2 8.4
2018-Jun-15 07:29N 52°41' W 005°24'10 9.6
2018-Jun-15 06:24N 52°50' W 005°17'6511.4
2018-Jun-15 00:40N 53°34' W 003°56'312.0
2018-Jun-15 00:23N 53°34' W 003°50'512.0
2018-Jun-14 23:59N 53°34' W 003°42'611.5
2018-Jun-14 23:30N 53°33' W 003°33'611.1
2018-Jun-14 22:59N 53°33' W 003°23'510.2
2018-Jun-14 22:30N 53°32' W 003°15'5 9.3
2018-Jun-14 22:00N 53°31' W 003°07'4 7.8
2018-Jun-14 21:30N 53°28' W 003°03'2 4.6
2018-Jun-14 20:58N 53°26' W 003°01'0 0.0
2018-Jun-14 20:28N 53°26' W 003°01'0 0.6
2018-Jun-14 19:58N 53°26' W 003°00'0 0.2
2018-Jun-14 19:25N 53°26' W 003°00'0 0.0
2018-Jun-14 18:58N 53°26' W 003°00'0 0.0
2018-Jun-14 18:28N 53°26' W 003°00'0 0.0
2018-Jun-14 17:58N 53°26' W 003°00'0 0.0
2018-Jun-14 17:25N 53°26' W 003°00'0 0.0
2018-Jun-14 16:55N 53°26' W 003°00'0 0.0
2018-Jun-14 16:28N 53°26' W 003°00'0 0.0
2018-Jun-14 15:58N 53°26' W 003°00'0 0.0
2018-Jun-14 15:28N 53°26' W 003°00'0 0.0
2018-Jun-14 14:58N 53°26' W 003°00'0 0.0
2018-Jun-14 14:28N 53°26' W 003°00'0 0.0
2018-Jun-14 13:58N 53°26' W 003°00'0 0.0
2018-Jun-14 13:28N 53°26' W 003°00'0 0.0
2018-Jun-14 12:58N 53°26' W 003°00'0 0.0
2018-Jun-14 12:28N 53°26' W 003°00'0 0.0
2018-Jun-14 11:52N 53°26' W 003°00'0 0.0
2018-Jun-14 11:28N 53°26' W 003°00'0 0.0
2018-Jun-14 10:58N 53°26' W 003°00'0 0.0
2018-Jun-14 10:28N 53°26' W 003°00'0 0.0
2018-Jun-14 09:58N 53°26' W 003°00'0 0.0
2018-Jun-14 09:28N 53°26' W 003°00'0 0.0
2018-Jun-14 08:58N 53°26' W 003°00'0 0.0
2018-Jun-14 08:28N 53°26' W 003°00'0 0.0
2018-Jun-14 07:58N 53°26' W 003°00'0 0.0
2018-Jun-14 07:25N 53°26' W 003°00'0 0.0
2018-Jun-14 06:58N 53°26' W 003°00'0 0.0
2018-Jun-14 06:28N 53°26' W 003°00'0 0.0
2018-Jun-14 05:58N 53°26' W 003°00'0 0.0
2018-Jun-14 05:28N 53°26' W 003°00'0 0.0
2018-Jun-14 04:58N 53°26' W 003°00'0 0.0
2018-Jun-14 04:22N 53°26' W 003°00'0 0.0
2018-Jun-14 03:58N 53°26' W 003°00'0 0.0
2018-Jun-14 03:22N 53°26' W 003°00'0 0.0
2018-Jun-14 02:58N 53°26' W 003°00'0 0.0
2018-Jun-14 02:28N 53°26' W 003°00'0 0.0
2018-Jun-14 01:55N 53°26' W 003°00'0 0.0
2018-Jun-14 01:28N 53°26' W 003°00'0 0.0
2018-Jun-14 01:01N 53°26' W 003°00'0 0.0
2018-Jun-14 00:27N 53°26' W 003°00'0 0.0
2018-Jun-14 00:00N 53°26' W 003°00'0 0.0
2018-Jun-13 23:30N 53°26' W 003°00'0 0.0
2018-Jun-13 23:00N 53°26' W 003°00'0 0.0
2018-Jun-13 22:30N 53°26' W 003°00'0 0.0
2018-Jun-13 22:00N 53°26' W 003°00'0 0.0
2018-Jun-13 21:30N 53°26' W 003°00'0 0.0
2018-Jun-13 21:00N 53°26' W 003°00'0 0.0
2018-Jun-13 20:30N 53°26' W 003°00'0 0.0
2018-Jun-13 20:00N 53°26' W 003°00'0 0.0
2018-Jun-13 19:30N 53°26' W 003°00'0 0.0
2018-Jun-13 18:57N 53°26' W 003°00'0 0.0
2018-Jun-13 18:30N 53°26' W 003°00'0 0.0
2018-Jun-13 17:57N 53°26' W 003°00'0 0.0
2018-Jun-13 17:30N 53°26' W 003°00'0 0.0
2018-Jun-13 17:00N 53°26' W 003°00'0 0.0
2018-Jun-13 16:30N 53°26' W 003°00'0 0.0
2018-Jun-13 16:00N 53°26' W 003°00'0 0.0
2018-Jun-13 15:30N 53°26' W 003°00'0 0.0
2018-Jun-13 15:00N 53°26' W 003°00'0 0.0
2018-Jun-13 14:30N 53°26' W 003°00'0 0.0
2018-Jun-13 14:00N 53°26' W 003°00'0 0.0
2018-Jun-13 13:30N 53°26' W 003°00'0 0.0
2018-Jun-13 13:00N 53°26' W 003°00'0 0.0
2018-Jun-13 12:30N 53°26' W 003°00'0 0.0
2018-Jun-13 11:57N 53°26' W 003°00'0 0.0
2018-Jun-13 11:30N 53°26' W 003°00'0 0.0
2018-Jun-13 11:00N 53°26' W 003°00'0 0.7
2018-Jun-13 10:30N 53°26' W 003°01'0 0.4
2018-Jun-13 10:00N 53°26' W 003°01'  

Dump ship's entire track history